Sunstar — 9V2728 — position and weather

sailwx.info

Track history (hours):
 
Tides and Currents Weather Stations Pressure Air Temp Water Temp Dewpoint Dewpoint Depression Visibility Wind Speed Wind Dir Waves Ship Positions

Sunstar

Last reported at 2018-Jun-14 15:43 UTC. Time now 2018-Jun-20 09:06 UTC.
Position N 09°11' W 079°52'.

Length 224 m; draft 11.9 m.

Type: Tanker. MMSI: 566013000.

Date/timePositionNaut miles runAvg speedWind from/ knotsBaromVisibWave heightAir tempDewpointWater temp
2018-Jun-14 15:43N 09°11' W 079°52'2 8.6
2018-Jun-14 15:26N 09°12' W 079°54'3 5.7
2018-Jun-14 14:57N 09°14' W 079°55'1 1.9
2018-Jun-14 14:14N 09°16' W 079°55'0 1.5
2018-Jun-14 13:58N 09°16' W 079°55'0 0.2
2018-Jun-14 13:30N 09°16' W 079°55'0 0.4
2018-Jun-14 13:00N 09°16' W 079°55'0 0.5
2018-Jun-14 12:30N 09°17' W 079°55'0 0.2
2018-Jun-14 12:00N 09°17' W 079°55'0 0.6
2018-Jun-14 11:30N 09°17' W 079°55'1 1.9
2018-Jun-14 11:00N 09°18' W 079°55'3 5.2
2018-Jun-14 10:30N 09°21' W 079°55'3 6.2
2018-Jun-14 10:00N 09°24' W 079°55'3 6.7
2018-Jun-14 09:30N 09°27' W 079°55'4 8.6
2018-Jun-14 09:01N 09°31' W 079°53'0 0.4
2018-Jun-14 08:30N 09°31' W 079°53'0 0.0
2018-Jun-14 08:01N 09°31' W 079°53'0 0.8
2018-Jun-14 07:31N 09°31' W 079°53'5 7.9
2018-Jun-14 06:56N 09°35' W 079°53'712.9
2018-Jun-14 06:23N 09°43' W 079°52'  
2018-Jun-09 17:25N 29°14' W 094°33'1510.6
2018-Jun-09 16:01N 29°21' W 094°47'011.7
2018-Jun-09 16:00N 29°21' W 094°48'510.8
2018-Jun-09 15:29N 29°26' W 094°50'1010.5
2018-Jun-09 14:30N 29°35' W 094°56'5 9.4
2018-Jun-09 14:00N 29°40' W 094°58'4 8.3
2018-Jun-09 13:28N 29°43' W 095°01'4 6.5
2018-Jun-09 12:53N 29°46' W 095°05'3 5.7
2018-Jun-09 12:24N 29°44' W 095°07'2 5.4
2018-Jun-09 11:58N 29°45' W 095°10'  
2018-Jun-05 14:24N 29°44' W 095°07'3 5.9
2018-Jun-05 13:58N 29°45' W 095°04'4 6.6
2018-Jun-05 13:24N 29°42' W 095°01'3 8.8
2018-Jun-05 13:01N 29°40' W 094°58'611.5
2018-Jun-05 12:31N 29°35' W 094°56'612.5
2018-Jun-05 12:00N 29°29' W 094°52'612.8
2018-Jun-05 11:30N 29°24' W 094°49'611.5
2018-Jun-05 11:01N 29°21' W 094°43'612.9
2018-Jun-05 10:31N 29°18' W 094°36'510.0
2018-Jun-05 10:00N 29°15' W 094°32'3 5.4
2018-Jun-05 09:30N 29°14' W 094°29'3 5.4
2018-Jun-05 09:00N 29°12' W 094°26'2 4.2
2018-Jun-05 08:30N 29°10' W 094°25'811.7
2018-Jun-05 07:47N 29°02' W 094°25'414.7
2018-Jun-05 07:30N 28°58' W 094°25'915.1
2018-Jun-05 06:55N 28°49' W 094°24'615.4
2018-Jun-05 06:30N 28°43' W 094°25'815.7
2018-Jun-05 05:59N 28°35' W 094°25'915.8
2018-Jun-05 05:25N 28°26' W 094°25'715.7
2018-Jun-05 05:00N 28°19' W 094°25'1015.5
2018-Jun-05 04:21N 28°09' W 094°24'  
Track history (hours):
 
Tides and Currents Weather Stations Pressure Air Temp Water Temp Dewpoint Dewpoint Depression Visibility Wind Speed Wind Dir Waves Ship Positions

Sunstar

Last reported at 2018-Jun-14 15:43 UTC. Time now 2018-Jun-20 09:06 UTC.
Position N 09°11' W 079°52'.

Length 224 m; draft 11.9 m.

Type: Tanker. MMSI: 566013000.

Date/timePositionNaut miles runAvg speedWind from/ knotsBaromVisibWave heightAir tempDewpointWater temp
2018-Jun-14 15:43N 09°11' W 079°52'2 8.6
2018-Jun-14 15:26N 09°12' W 079°54'3 5.7
2018-Jun-14 14:57N 09°14' W 079°55'1 1.9
2018-Jun-14 14:14N 09°16' W 079°55'0 1.5
2018-Jun-14 13:58N 09°16' W 079°55'0 0.2
2018-Jun-14 13:30N 09°16' W 079°55'0 0.4
2018-Jun-14 13:00N 09°16' W 079°55'0 0.5
2018-Jun-14 12:30N 09°17' W 079°55'0 0.2
2018-Jun-14 12:00N 09°17' W 079°55'0 0.6
2018-Jun-14 11:30N 09°17' W 079°55'1 1.9
2018-Jun-14 11:00N 09°18' W 079°55'3 5.2
2018-Jun-14 10:30N 09°21' W 079°55'3 6.2
2018-Jun-14 10:00N 09°24' W 079°55'3 6.7
2018-Jun-14 09:30N 09°27' W 079°55'4 8.6
2018-Jun-14 09:01N 09°31' W 079°53'0 0.4
2018-Jun-14 08:30N 09°31' W 079°53'0 0.0
2018-Jun-14 08:01N 09°31' W 079°53'0 0.8
2018-Jun-14 07:31N 09°31' W 079°53'5 7.9
2018-Jun-14 06:56N 09°35' W 079°53'712.9
2018-Jun-14 06:23N 09°43' W 079°52'  
2018-Jun-09 17:25N 29°14' W 094°33'1510.6
2018-Jun-09 16:01N 29°21' W 094°47'011.7
2018-Jun-09 16:00N 29°21' W 094°48'510.8
2018-Jun-09 15:29N 29°26' W 094°50'1010.5
2018-Jun-09 14:30N 29°35' W 094°56'5 9.4
2018-Jun-09 14:00N 29°40' W 094°58'4 8.3
2018-Jun-09 13:28N 29°43' W 095°01'4 6.5
2018-Jun-09 12:53N 29°46' W 095°05'3 5.7
2018-Jun-09 12:24N 29°44' W 095°07'2 5.4
2018-Jun-09 11:58N 29°45' W 095°10'  
2018-Jun-05 14:24N 29°44' W 095°07'3 5.9
2018-Jun-05 13:58N 29°45' W 095°04'4 6.6
2018-Jun-05 13:24N 29°42' W 095°01'3 8.8
2018-Jun-05 13:01N 29°40' W 094°58'611.5
2018-Jun-05 12:31N 29°35' W 094°56'612.5
2018-Jun-05 12:00N 29°29' W 094°52'612.8
2018-Jun-05 11:30N 29°24' W 094°49'611.5
2018-Jun-05 11:01N 29°21' W 094°43'612.9
2018-Jun-05 10:31N 29°18' W 094°36'510.0
2018-Jun-05 10:00N 29°15' W 094°32'3 5.4
2018-Jun-05 09:30N 29°14' W 094°29'3 5.4
2018-Jun-05 09:00N 29°12' W 094°26'2 4.2
2018-Jun-05 08:30N 29°10' W 094°25'811.7
2018-Jun-05 07:47N 29°02' W 094°25'414.7
2018-Jun-05 07:30N 28°58' W 094°25'915.1
2018-Jun-05 06:55N 28°49' W 094°24'615.4
2018-Jun-05 06:30N 28°43' W 094°25'815.7
2018-Jun-05 05:59N 28°35' W 094°25'915.8
2018-Jun-05 05:25N 28°26' W 094°25'715.7
2018-Jun-05 05:00N 28°19' W 094°25'1015.5
2018-Jun-05 04:21N 28°09' W 094°24'  

Dump ship's entire track history